sensor_id;sensor_type;location;lat;lon;timestamp;P1;durP1;ratioP1;P2;durP2;ratioP2
51838;SDS011;37886;53.174;6.368;2023-02-15T00:01:29;122.93;;;66.55;;
51838;SDS011;37886;53.174;6.368;2023-02-15T00:03:55;109.57;;;71.85;;
51838;SDS011;37886;53.174;6.368;2023-02-15T00:06:21;98.68;;;66.18;;
51838;SDS011;37886;53.174;6.368;2023-02-15T00:08:47;108.50;;;69.03;;
51838;SDS011;37886;53.174;6.368;2023-02-15T00:11:15;100.15;;;64.55;;
51838;SDS011;37886;53.174;6.368;2023-02-15T00:14:03;88.97;;;61.95;;
51838;SDS011;37886;53.174;6.368;2023-02-15T00:16:29;87.88;;;60.40;;
51838;SDS011;37886;53.174;6.368;2023-02-15T00:18:55;86.25;;;60.30;;
51838;SDS011;37886;53.174;6.368;2023-02-15T00:21:21;82.10;;;60.42;;
51838;SDS011;37886;53.174;6.368;2023-02-15T00:23:46;83.97;;;60.58;;
51838;SDS011;37886;53.174;6.368;2023-02-15T00:26:12;78.88;;;59.05;;
51838;SDS011;37886;53.174;6.368;2023-02-15T00:28:38;84.10;;;58.97;;
51838;SDS011;37886;53.174;6.368;2023-02-15T00:31:09;80.93;;;59.25;;
51838;SDS011;37886;53.174;6.368;2023-02-15T00:33:36;78.78;;;57.67;;
51838;SDS011;37886;53.174;6.368;2023-02-15T00:36:03;83.00;;;58.58;;
51838;SDS011;37886;53.174;6.368;2023-02-15T00:38:30;86.68;;;59.33;;
51838;SDS011;37886;53.174;6.368;2023-02-15T00:40:56;84.65;;;60.65;;
51838;SDS011;37886;53.174;6.368;2023-02-15T00:43:23;85.25;;;59.47;;
51838;SDS011;37886;53.174;6.368;2023-02-15T00:45:53;86.00;;;62.03;;
51838;SDS011;37886;53.174;6.368;2023-02-15T00:48:19;80.40;;;58.45;;
51838;SDS011;37886;53.174;6.368;2023-02-15T00:50:46;76.72;;;57.63;;
51838;SDS011;37886;53.174;6.368;2023-02-15T00:53:12;77.47;;;58.00;;
51838;SDS011;37886;53.174;6.368;2023-02-15T00:55:38;85.93;;;61.33;;
51838;SDS011;37886;53.174;6.368;2023-02-15T00:58:05;85.43;;;59.15;;
51838;SDS011;37886;53.174;6.368;2023-02-15T01:00:31;99.05;;;65.70;;
51838;SDS011;37886;53.174;6.368;2023-02-15T01:02:57;88.60;;;63.28;;
51838;SDS011;37886;53.174;6.368;2023-02-15T01:05:22;88.50;;;60.58;;
51838;SDS011;37886;53.174;6.368;2023-02-15T01:07:48;99.57;;;61.33;;
51838;SDS011;37886;53.174;6.368;2023-02-15T01:10:14;103.38;;;66.20;;
51838;SDS011;37886;53.174;6.368;2023-02-15T01:12:39;99.68;;;64.00;;
51838;SDS011;37886;53.174;6.368;2023-02-15T01:15:05;122.07;;;70.75;;
51838;SDS011;37886;53.174;6.368;2023-02-15T01:17:31;105.10;;;65.93;;
51838;SDS011;37886;53.174;6.368;2023-02-15T01:19:57;99.70;;;65.32;;
51838;SDS011;37886;53.174;6.368;2023-02-15T01:22:24;117.90;;;70.95;;
51838;SDS011;37886;53.174;6.368;2023-02-15T01:24:50;125.57;;;71.97;;
51838;SDS011;37886;53.174;6.368;2023-02-15T01:27:16;130.15;;;70.38;;
51838;SDS011;37886;53.174;6.368;2023-02-15T01:29:41;159.30;;;80.60;;
51838;SDS011;37886;53.174;6.368;2023-02-15T01:32:07;159.35;;;79.43;;
51838;SDS011;37886;53.174;6.368;2023-02-15T01:34:33;155.18;;;79.55;;
51838;SDS011;37886;53.174;6.368;2023-02-15T01:36:58;151.57;;;75.70;;
51838;SDS011;37886;53.174;6.368;2023-02-15T01:39:24;154.50;;;78.18;;
51838;SDS011;37886;53.174;6.368;2023-02-15T01:41:50;165.27;;;81.88;;
51838;SDS011;37886;53.174;6.368;2023-02-15T01:47:14;280.65;;;90.50;;
51838;SDS011;37886;53.174;6.368;2023-02-15T01:50:09;276.33;;;87.13;;
51838;SDS011;37886;53.174;6.368;2023-02-15T01:55:29;307.10;;;91.60;;
51838;SDS011;37886;53.174;6.368;2023-02-15T01:57:59;227.05;;;92.63;;
51838;SDS011;37886;53.174;6.368;2023-02-15T02:00:25;558.15;;;104.30;;
51838;SDS011;37886;53.174;6.368;2023-02-15T02:02:53;516.88;;;105.50;;
51838;SDS011;37886;53.174;6.368;2023-02-15T02:05:22;169.65;;;77.30;;
51838;SDS011;37886;53.174;6.368;2023-02-15T02:07:48;641.55;;;110.55;;
51838;SDS011;37886;53.174;6.368;2023-02-15T02:10:18;396.83;;;106.35;;
51838;SDS011;37886;53.174;6.368;2023-02-15T02:12:47;234.32;;;96.57;;
51838;SDS011;37886;53.174;6.368;2023-02-15T02:15:17;240.32;;;98.28;;
51838;SDS011;37886;53.174;6.368;2023-02-15T02:20:24;190.52;;;93.18;;
51838;SDS011;37886;53.174;6.368;2023-02-15T02:33:36;167.88;;;88.88;;
51838;SDS011;37886;53.174;6.368;2023-02-15T02:42:04;149.00;;;83.80;;
51838;SDS011;37886;53.174;6.368;2023-02-15T02:44:41;134.35;;;82.18;;
51838;SDS011;37886;53.174;6.368;2023-02-15T02:47:36;145.38;;;84.32;;
51838;SDS011;37886;53.174;6.368;2023-02-15T02:50:08;134.80;;;81.65;;
51838;SDS011;37886;53.174;6.368;2023-02-15T02:57:43;138.32;;;83.05;;
51838;SDS011;37886;53.174;6.368;2023-02-15T03:00:16;125.38;;;81.43;;
51838;SDS011;37886;53.174;6.368;2023-02-15T03:02:43;136.57;;;81.20;;
51838;SDS011;37886;53.174;6.368;2023-02-15T03:05:13;137.45;;;81.28;;
51838;SDS011;37886;53.174;6.368;2023-02-15T03:07:43;135.13;;;81.03;;
51838;SDS011;37886;53.174;6.368;2023-02-15T03:10:13;125.32;;;79.22;;
51838;SDS011;37886;53.174;6.368;2023-02-15T03:12:40;133.80;;;80.38;;
51838;SDS011;37886;53.174;6.368;2023-02-15T03:15:10;130.25;;;79.25;;
51838;SDS011;37886;53.174;6.368;2023-02-15T03:17:40;123.47;;;78.05;;
51838;SDS011;37886;53.174;6.368;2023-02-15T03:20:16;147.18;;;83.80;;
51838;SDS011;37886;53.174;6.368;2023-02-15T03:22:50;127.60;;;78.65;;
51838;SDS011;37886;53.174;6.368;2023-02-15T03:25:23;127.68;;;74.32;;
51838;SDS011;37886;53.174;6.368;2023-02-15T03:27:54;128.65;;;78.88;;
51838;SDS011;37886;53.174;6.368;2023-02-15T03:30:24;128.93;;;79.78;;
51838;SDS011;37886;53.174;6.368;2023-02-15T03:32:51;123.75;;;78.47;;
51838;SDS011;37886;53.174;6.368;2023-02-15T03:35:20;131.35;;;78.78;;
51838;SDS011;37886;53.174;6.368;2023-02-15T03:37:51;116.75;;;74.40;;
51838;SDS011;37886;53.174;6.368;2023-02-15T03:40:23;121.40;;;75.68;;
51838;SDS011;37886;53.174;6.368;2023-02-15T03:43:19;123.90;;;77.22;;
51838;SDS011;37886;53.174;6.368;2023-02-15T03:45:55;121.28;;;77.75;;
51838;SDS011;37886;53.174;6.368;2023-02-15T03:48:44;132.35;;;81.60;;
51838;SDS011;37886;53.174;6.368;2023-02-15T03:51:16;130.82;;;78.03;;
51838;SDS011;37886;53.174;6.368;2023-02-15T03:54:09;121.18;;;75.60;;
51838;SDS011;37886;53.174;6.368;2023-02-15T03:56:41;144.95;;;81.65;;
51838;SDS011;37886;53.174;6.368;2023-02-15T03:59:27;127.47;;;80.88;;
51838;SDS011;37886;53.174;6.368;2023-02-15T04:04:45;137.77;;;82.18;;
51838;SDS011;37886;53.174;6.368;2023-02-15T04:07:12;136.20;;;81.85;;
51838;SDS011;37886;53.174;6.368;2023-02-15T04:09:38;129.95;;;79.85;;
51838;SDS011;37886;53.174;6.368;2023-02-15T04:12:22;123.50;;;76.32;;
51838;SDS011;37886;53.174;6.368;2023-02-15T04:14:48;125.20;;;79.97;;
51838;SDS011;37886;53.174;6.368;2023-02-15T04:17:33;114.93;;;72.97;;
51838;SDS011;37886;53.174;6.368;2023-02-15T04:19:58;123.65;;;75.57;;
51838;SDS011;37886;53.174;6.368;2023-02-15T04:22:42;132.75;;;79.45;;
51838;SDS011;37886;53.174;6.368;2023-02-15T04:25:27;138.35;;;80.78;;
51838;SDS011;37886;53.174;6.368;2023-02-15T04:27:53;146.98;;;84.38;;
51838;SDS011;37886;53.174;6.368;2023-02-15T04:30:21;135.80;;;80.15;;
51838;SDS011;37886;53.174;6.368;2023-02-15T04:32:48;134.00;;;78.35;;
51838;SDS011;37886;53.174;6.368;2023-02-15T04:35:14;130.07;;;82.90;;
51838;SDS011;37886;53.174;6.368;2023-02-15T04:37:41;126.38;;;78.65;;
51838;SDS011;37886;53.174;6.368;2023-02-15T04:40:09;129.98;;;81.32;;
51838;SDS011;37886;53.174;6.368;2023-02-15T04:42:36;126.85;;;81.47;;
51838;SDS011;37886;53.174;6.368;2023-02-15T04:45:02;119.78;;;76.78;;
51838;SDS011;37886;53.174;6.368;2023-02-15T04:47:28;131.70;;;80.55;;
51838;SDS011;37886;53.174;6.368;2023-02-15T04:49:53;131.43;;;81.13;;
51838;SDS011;37886;53.174;6.368;2023-02-15T04:52:19;130.60;;;77.18;;
51838;SDS011;37886;53.174;6.368;2023-02-15T04:54:45;133.07;;;82.00;;
51838;SDS011;37886;53.174;6.368;2023-02-15T04:57:11;121.72;;;77.70;;
51838;SDS011;37886;53.174;6.368;2023-02-15T04:59:37;127.95;;;77.88;;
51838;SDS011;37886;53.174;6.368;2023-02-15T05:02:02;128.50;;;76.35;;
51838;SDS011;37886;53.174;6.368;2023-02-15T05:04:28;133.00;;;81.28;;
51838;SDS011;37886;53.174;6.368;2023-02-15T05:06:54;134.90;;;83.07;;
51838;SDS011;37886;53.174;6.368;2023-02-15T05:09:20;137.38;;;83.00;;
51838;SDS011;37886;53.174;6.368;2023-02-15T05:11:45;147.45;;;87.22;;
51838;SDS011;37886;53.174;6.368;2023-02-15T05:14:11;146.38;;;85.32;;
51838;SDS011;37886;53.174;6.368;2023-02-15T05:16:37;144.65;;;85.00;;
51838;SDS011;37886;53.174;6.368;2023-02-15T05:19:03;135.88;;;83.15;;
51838;SDS011;37886;53.174;6.368;2023-02-15T05:21:29;139.32;;;85.10;;
51838;SDS011;37886;53.174;6.368;2023-02-15T05:23:54;135.75;;;82.93;;
51838;SDS011;37886;53.174;6.368;2023-02-15T05:26:21;157.35;;;85.22;;
51838;SDS011;37886;53.174;6.368;2023-02-15T05:29:06;141.75;;;84.25;;
51838;SDS011;37886;53.174;6.368;2023-02-15T05:31:32;151.55;;;86.68;;
51838;SDS011;37886;53.174;6.368;2023-02-15T05:33:59;153.15;;;86.10;;
51838;SDS011;37886;53.174;6.368;2023-02-15T05:36:24;142.00;;;84.43;;
51838;SDS011;37886;53.174;6.368;2023-02-15T05:38:50;147.60;;;85.50;;
51838;SDS011;37886;53.174;6.368;2023-02-15T05:41:16;155.10;;;87.60;;
51838;SDS011;37886;53.174;6.368;2023-02-15T05:43:41;171.75;;;92.15;;
51838;SDS011;37886;53.174;6.368;2023-02-15T05:46:07;186.90;;;95.13;;
51838;SDS011;37886;53.174;6.368;2023-02-15T05:48:33;174.30;;;96.70;;
51838;SDS011;37886;53.174;6.368;2023-02-15T05:51:03;165.65;;;90.43;;
51838;SDS011;37886;53.174;6.368;2023-02-15T05:53:35;167.75;;;91.93;;
51838;SDS011;37886;53.174;6.368;2023-02-15T05:56:02;188.88;;;93.60;;
51838;SDS011;37886;53.174;6.368;2023-02-15T05:58:29;206.95;;;101.07;;
51838;SDS011;37886;53.174;6.368;2023-02-15T06:00:57;197.93;;;101.35;;
51838;SDS011;37886;53.174;6.368;2023-02-15T06:03:23;200.85;;;101.07;;
51838;SDS011;37886;53.174;6.368;2023-02-15T06:05:51;214.25;;;103.72;;
51838;SDS011;37886;53.174;6.368;2023-02-15T06:08:17;200.30;;;101.60;;
51838;SDS011;37886;53.174;6.368;2023-02-15T06:10:44;206.85;;;99.38;;
51838;SDS011;37886;53.174;6.368;2023-02-15T06:13:10;191.32;;;97.75;;
51838;SDS011;37886;53.174;6.368;2023-02-15T06:15:36;206.82;;;103.70;;
51838;SDS011;37886;53.174;6.368;2023-02-15T06:18:02;199.63;;;101.47;;
51838;SDS011;37886;53.174;6.368;2023-02-15T06:20:27;207.85;;;107.20;;
51838;SDS011;37886;53.174;6.368;2023-02-15T06:22:53;246.35;;;108.85;;
51838;SDS011;37886;53.174;6.368;2023-02-15T06:25:19;243.52;;;111.22;;
51838;SDS011;37886;53.174;6.368;2023-02-15T06:27:45;237.05;;;112.47;;
51838;SDS011;37886;53.174;6.368;2023-02-15T06:30:11;232.27;;;114.13;;
51838;SDS011;37886;53.174;6.368;2023-02-15T06:32:37;254.75;;;111.70;;
51838;SDS011;37886;53.174;6.368;2023-02-15T06:35:03;230.32;;;112.78;;
51838;SDS011;37886;53.174;6.368;2023-02-15T06:37:29;242.00;;;111.72;;
51838;SDS011;37886;53.174;6.368;2023-02-15T06:39:55;237.15;;;111.25;;
51838;SDS011;37886;53.174;6.368;2023-02-15T06:42:21;244.20;;;114.90;;
51838;SDS011;37886;53.174;6.368;2023-02-15T06:44:47;245.15;;;112.07;;
51838;SDS011;37886;53.174;6.368;2023-02-15T06:47:13;255.35;;;118.22;;
51838;SDS011;37886;53.174;6.368;2023-02-15T06:49:39;228.52;;;111.50;;
51838;SDS011;37886;53.174;6.368;2023-02-15T06:52:04;251.02;;;116.32;;
51838;SDS011;37886;53.174;6.368;2023-02-15T06:54:30;229.52;;;111.00;;
51838;SDS011;37886;53.174;6.368;2023-02-15T06:56:56;247.50;;;114.45;;
51838;SDS011;37886;53.174;6.368;2023-02-15T06:59:22;244.00;;;112.47;;
51838;SDS011;37886;53.174;6.368;2023-02-15T07:01:47;261.48;;;120.90;;
51838;SDS011;37886;53.174;6.368;2023-02-15T07:04:14;248.07;;;112.20;;
51838;SDS011;37886;53.174;6.368;2023-02-15T07:06:40;247.48;;;118.70;;
51838;SDS011;37886;53.174;6.368;2023-02-15T07:09:06;277.75;;;119.05;;
51838;SDS011;37886;53.174;6.368;2023-02-15T07:11:31;273.80;;;122.05;;
51838;SDS011;37886;53.174;6.368;2023-02-15T07:14:16;255.57;;;115.80;;
51838;SDS011;37886;53.174;6.368;2023-02-15T07:16:42;251.18;;;115.90;;
51838;SDS011;37886;53.174;6.368;2023-02-15T07:19:08;262.98;;;115.95;;
51838;SDS011;37886;53.174;6.368;2023-02-15T07:21:34;270.85;;;118.78;;
51838;SDS011;37886;53.174;6.368;2023-02-15T07:24:00;245.90;;;117.15;;
51838;SDS011;37886;53.174;6.368;2023-02-15T07:26:26;257.67;;;116.75;;
51838;SDS011;37886;53.174;6.368;2023-02-15T07:28:51;251.57;;;119.78;;
51838;SDS011;37886;53.174;6.368;2023-02-15T07:31:17;274.20;;;121.38;;
51838;SDS011;37886;53.174;6.368;2023-02-15T07:33:43;252.25;;;118.35;;
51838;SDS011;37886;53.174;6.368;2023-02-15T07:36:09;237.20;;;114.63;;
51838;SDS011;37886;53.174;6.368;2023-02-15T07:38:37;242.57;;;114.78;;
51838;SDS011;37886;53.174;6.368;2023-02-15T07:41:05;245.80;;;114.90;;
51838;SDS011;37886;53.174;6.368;2023-02-15T07:43:34;228.10;;;112.18;;
51838;SDS011;37886;53.174;6.368;2023-02-15T07:46:05;226.13;;;111.53;;
51838;SDS011;37886;53.174;6.368;2023-02-15T07:48:34;205.40;;;106.72;;
51838;SDS011;37886;53.174;6.368;2023-02-15T07:51:00;217.57;;;107.72;;
51838;SDS011;37886;53.174;6.368;2023-02-15T07:53:27;223.93;;;109.35;;
51838;SDS011;37886;53.174;6.368;2023-02-15T07:55:53;214.43;;;105.97;;
51838;SDS011;37886;53.174;6.368;2023-02-15T07:58:20;221.48;;;110.50;;
51838;SDS011;37886;53.174;6.368;2023-02-15T08:00:45;209.55;;;107.28;;
51838;SDS011;37886;53.174;6.368;2023-02-15T08:03:27;211.77;;;105.40;;
51838;SDS011;37886;53.174;6.368;2023-02-15T08:05:57;223.23;;;108.38;;
51838;SDS011;37886;53.174;6.368;2023-02-15T08:08:24;209.05;;;109.65;;
51838;SDS011;37886;53.174;6.368;2023-02-15T08:10:58;206.73;;;106.88;;
51838;SDS011;37886;53.174;6.368;2023-02-15T08:13:48;211.85;;;104.93;;
51838;SDS011;37886;53.174;6.368;2023-02-15T08:16:37;204.57;;;105.13;;
51838;SDS011;37886;53.174;6.368;2023-02-15T08:21:45;211.77;;;106.10;;
51838;SDS011;37886;53.174;6.368;2023-02-15T08:24:16;206.00;;;105.10;;
51838;SDS011;37886;53.174;6.368;2023-02-15T08:26:44;201.52;;;107.22;;
51838;SDS011;37886;53.174;6.368;2023-02-15T08:29:11;218.20;;;103.85;;
51838;SDS011;37886;53.174;6.368;2023-02-15T08:31:38;229.98;;;109.55;;
51838;SDS011;37886;53.174;6.368;2023-02-15T08:34:06;216.98;;;109.40;;
51838;SDS011;37886;53.174;6.368;2023-02-15T08:36:33;204.52;;;108.93;;
51838;SDS011;37886;53.174;6.368;2023-02-15T08:38:59;212.65;;;109.03;;
51838;SDS011;37886;53.174;6.368;2023-02-15T08:41:27;222.57;;;110.65;;
51838;SDS011;37886;53.174;6.368;2023-02-15T08:43:56;218.07;;;112.07;;
51838;SDS011;37886;53.174;6.368;2023-02-15T08:46:25;221.05;;;114.25;;
51838;SDS011;37886;53.174;6.368;2023-02-15T08:48:55;207.38;;;113.28;;
51838;SDS011;37886;53.174;6.368;2023-02-15T08:51:22;215.32;;;111.32;;
51838;SDS011;37886;53.174;6.368;2023-02-15T08:53:54;206.13;;;110.10;;
51838;SDS011;37886;53.174;6.368;2023-02-15T08:56:22;218.68;;;113.18;;
51838;SDS011;37886;53.174;6.368;2023-02-15T08:58:52;195.13;;;111.20;;
51838;SDS011;37886;53.174;6.368;2023-02-15T09:01:20;195.88;;;107.53;;
51838;SDS011;37886;53.174;6.368;2023-02-15T09:03:48;195.85;;;108.68;;
51838;SDS011;37886;53.174;6.368;2023-02-15T09:06:18;197.07;;;105.68;;
51838;SDS011;37886;53.174;6.368;2023-02-15T09:08:44;187.75;;;104.93;;
51838;SDS011;37886;53.174;6.368;2023-02-15T09:11:11;190.82;;;105.35;;
51838;SDS011;37886;53.174;6.368;2023-02-15T09:13:41;171.90;;;98.43;;
51838;SDS011;37886;53.174;6.368;2023-02-15T09:16:08;163.07;;;99.05;;
51838;SDS011;37886;53.174;6.368;2023-02-15T09:18:38;178.20;;;101.82;;
51838;SDS011;37886;53.174;6.368;2023-02-15T09:21:05;171.32;;;101.82;;
51838;SDS011;37886;53.174;6.368;2023-02-15T09:23:32;161.38;;;99.85;;
51838;SDS011;37886;53.174;6.368;2023-02-15T09:26:01;162.73;;;98.25;;
51838;SDS011;37886;53.174;6.368;2023-02-15T09:28:28;163.60;;;99.82;;
51838;SDS011;37886;53.174;6.368;2023-02-15T09:30:54;165.05;;;97.95;;
51838;SDS011;37886;53.174;6.368;2023-02-15T09:33:20;142.60;;;91.32;;
51838;SDS011;37886;53.174;6.368;2023-02-15T09:35:47;147.85;;;93.45;;
51838;SDS011;37886;53.174;6.368;2023-02-15T09:38:13;147.93;;;91.35;;
51838;SDS011;37886;53.174;6.368;2023-02-15T09:40:41;138.63;;;93.30;;
51838;SDS011;37886;53.174;6.368;2023-02-15T09:43:28;135.13;;;90.55;;
51838;SDS011;37886;53.174;6.368;2023-02-15T09:46:31;131.02;;;87.50;;
51838;SDS011;37886;53.174;6.368;2023-02-15T09:49:19;133.00;;;86.32;;
51838;SDS011;37886;53.174;6.368;2023-02-15T09:52:55;134.52;;;90.60;;
51838;SDS011;37886;53.174;6.368;2023-02-15T09:55:29;123.47;;;85.10;;
51838;SDS011;37886;53.174;6.368;2023-02-15T10:33:46;95.85;;;72.95;;
51838;SDS011;37886;53.174;6.368;2023-02-15T10:42:10;100.03;;;72.88;;
51838;SDS011;37886;53.174;6.368;2023-02-15T10:45:00;92.45;;;69.97;;
51838;SDS011;37886;53.174;6.368;2023-02-15T10:50:34;97.88;;;71.38;;
51838;SDS011;37886;53.174;6.368;2023-02-15T10:53:08;98.70;;;70.45;;
51838;SDS011;37886;53.174;6.368;2023-02-15T11:01:20;93.60;;;70.60;;
51838;SDS011;37886;53.174;6.368;2023-02-15T11:06:30;94.60;;;67.70;;
51838;SDS011;37886;53.174;6.368;2023-02-15T11:09:33;87.07;;;63.78;;
51838;SDS011;37886;53.174;6.368;2023-02-15T11:11:55;92.70;;;68.25;;
51838;SDS011;37886;53.174;6.368;2023-02-15T11:14:37;89.18;;;66.20;;
51838;SDS011;37886;53.174;6.368;2023-02-15T11:17:10;90.25;;;63.72;;
51838;SDS011;37886;53.174;6.368;2023-02-15T11:19:41;79.32;;;62.42;;
51838;SDS011;37886;53.174;6.368;2023-02-15T11:22:20;85.40;;;62.42;;
51838;SDS011;37886;53.174;6.368;2023-02-15T11:24:46;85.75;;;64.75;;
51838;SDS011;37886;53.174;6.368;2023-02-15T11:27:20;85.40;;;63.45;;
51838;SDS011;37886;53.174;6.368;2023-02-15T11:29:52;80.40;;;63.40;;
51838;SDS011;37886;53.174;6.368;2023-02-15T11:32:58;80.07;;;59.67;;
51838;SDS011;37886;53.174;6.368;2023-02-15T11:35:29;82.95;;;62.33;;
51838;SDS011;37886;53.174;6.368;2023-02-15T11:38:18;85.82;;;62.95;;
51838;SDS011;37886;53.174;6.368;2023-02-15T11:40:54;84.32;;;62.47;;
51838;SDS011;37886;53.174;6.368;2023-02-15T11:43:26;84.22;;;63.88;;
51838;SDS011;37886;53.174;6.368;2023-02-15T11:46:00;79.30;;;60.60;;
51838;SDS011;37886;53.174;6.368;2023-02-15T11:48:26;82.55;;;58.75;;
51838;SDS011;37886;53.174;6.368;2023-02-15T11:50:56;84.88;;;62.97;;
51838;SDS011;37886;53.174;6.368;2023-02-15T11:53:22;86.13;;;60.53;;
51838;SDS011;37886;53.174;6.368;2023-02-15T11:55:53;78.05;;;60.22;;
51838;SDS011;37886;53.174;6.368;2023-02-15T11:58:40;82.20;;;63.58;;
51838;SDS011;37886;53.174;6.368;2023-02-15T12:01:24;75.38;;;58.25;;
51838;SDS011;37886;53.174;6.368;2023-02-15T12:07:14;74.40;;;57.75;;
51838;SDS011;37886;53.174;6.368;2023-02-15T12:09:49;79.38;;;57.58;;
51838;SDS011;37886;53.174;6.368;2023-02-15T12:12:27;75.45;;;58.15;;
51838;SDS011;37886;53.174;6.368;2023-02-15T12:14:55;80.03;;;62.08;;
51838;SDS011;37886;53.174;6.368;2023-02-15T12:17:26;76.97;;;58.03;;
51838;SDS011;37886;53.174;6.368;2023-02-15T12:19:55;71.60;;;58.42;;
51838;SDS011;37886;53.174;6.368;2023-02-15T12:22:25;78.90;;;59.67;;
51838;SDS011;37886;53.174;6.368;2023-02-15T12:24:55;76.10;;;58.63;;
51838;SDS011;37886;53.174;6.368;2023-02-15T12:27:27;79.20;;;59.08;;
51838;SDS011;37886;53.174;6.368;2023-02-15T12:30:07;79.93;;;61.08;;
51838;SDS011;37886;53.174;6.368;2023-02-15T12:32:58;80.50;;;61.40;;
51838;SDS011;37886;53.174;6.368;2023-02-15T12:35:33;84.40;;;63.08;;
51838;SDS011;37886;53.174;6.368;2023-02-15T12:38:03;81.95;;;60.78;;
51838;SDS011;37886;53.174;6.368;2023-02-15T12:40:35;80.90;;;61.53;;
51838;SDS011;37886;53.174;6.368;2023-02-15T12:43:01;75.78;;;59.30;;
51838;SDS011;37886;53.174;6.368;2023-02-15T12:45:34;78.30;;;58.00;;
51838;SDS011;37886;53.174;6.368;2023-02-15T12:48:17;75.00;;;58.80;;
51838;SDS011;37886;53.174;6.368;2023-02-15T12:50:45;79.38;;;59.78;;
51838;SDS011;37886;53.174;6.368;2023-02-15T12:55:59;84.80;;;61.47;;
51838;SDS011;37886;53.174;6.368;2023-02-15T12:58:30;75.30;;;57.78;;
51838;SDS011;37886;53.174;6.368;2023-02-15T13:06:29;77.72;;;56.97;;
51838;SDS011;37886;53.174;6.368;2023-02-15T13:09:13;74.47;;;57.65;;
51838;SDS011;37886;53.174;6.368;2023-02-15T13:11:42;73.95;;;57.30;;
51838;SDS011;37886;53.174;6.368;2023-02-15T13:14:16;73.88;;;57.42;;
51838;SDS011;37886;53.174;6.368;2023-02-15T13:16:48;79.28;;;58.47;;
51838;SDS011;37886;53.174;6.368;2023-02-15T13:22:12;73.07;;;55.33;;
51838;SDS011;37886;53.174;6.368;2023-02-15T13:24:41;69.47;;;55.15;;
51838;SDS011;37886;53.174;6.368;2023-02-15T13:27:12;81.28;;;55.88;;
51838;SDS011;37886;53.174;6.368;2023-02-15T13:29:43;68.65;;;53.70;;
51838;SDS011;37886;53.174;6.368;2023-02-15T13:34:57;69.22;;;53.42;;
51838;SDS011;37886;53.174;6.368;2023-02-15T13:40:13;72.93;;;55.05;;
51838;SDS011;37886;53.174;6.368;2023-02-15T13:56:46;72.68;;;54.45;;
51838;SDS011;37886;53.174;6.368;2023-02-15T14:02:45;73.47;;;56.92;;
51838;SDS011;37886;53.174;6.368;2023-02-15T14:16:47;67.45;;;53.90;;
51838;SDS011;37886;53.174;6.368;2023-02-15T14:19:35;66.40;;;52.38;;
51838;SDS011;37886;53.174;6.368;2023-02-15T14:27:40;68.13;;;53.58;;
51838;SDS011;37886;53.174;6.368;2023-02-15T14:30:29;71.55;;;54.15;;
51838;SDS011;37886;53.174;6.368;2023-02-15T14:35:49;71.72;;;54.13;;
51838;SDS011;37886;53.174;6.368;2023-02-15T14:46:36;67.03;;;51.85;;
51838;SDS011;37886;53.174;6.368;2023-02-15T14:49:37;67.65;;;51.78;;
51838;SDS011;37886;53.174;6.368;2023-02-15T14:52:03;65.38;;;51.10;;
51838;SDS011;37886;53.174;6.368;2023-02-15T15:04:38;67.75;;;51.13;;
51838;SDS011;37886;53.174;6.368;2023-02-15T15:09:43;69.38;;;52.20;;
51838;SDS011;37886;53.174;6.368;2023-02-15T15:14:46;66.65;;;52.92;;
51838;SDS011;37886;53.174;6.368;2023-02-15T15:19:58;69.75;;;53.08;;
51838;SDS011;37886;53.174;6.368;2023-02-15T15:22:25;70.97;;;53.28;;
51838;SDS011;37886;53.174;6.368;2023-02-15T15:24:56;69.28;;;53.13;;
51838;SDS011;37886;53.174;6.368;2023-02-15T15:46:06;73.68;;;56.17;;
51838;SDS011;37886;53.174;6.368;2023-02-15T15:48:36;68.18;;;53.80;;
51838;SDS011;37886;53.174;6.368;2023-02-15T15:53:47;76.05;;;55.92;;
51838;SDS011;37886;53.174;6.368;2023-02-15T15:56:22;70.35;;;55.10;;
51838;SDS011;37886;53.174;6.368;2023-02-15T15:58:54;72.65;;;55.85;;
51838;SDS011;37886;53.174;6.368;2023-02-15T16:01:29;81.32;;;55.97;;
51838;SDS011;37886;53.174;6.368;2023-02-15T16:03:59;71.15;;;56.50;;
51838;SDS011;37886;53.174;6.368;2023-02-15T16:06:30;76.15;;;57.70;;
51838;SDS011;37886;53.174;6.368;2023-02-15T16:09:15;72.10;;;55.70;;
51838;SDS011;37886;53.174;6.368;2023-02-15T16:11:48;76.47;;;57.65;;
51838;SDS011;37886;53.174;6.368;2023-02-15T16:14:28;76.97;;;58.67;;
51838;SDS011;37886;53.174;6.368;2023-02-15T16:17:07;80.25;;;61.80;;
51838;SDS011;37886;53.174;6.368;2023-02-15T16:19:42;84.60;;;63.70;;
51838;SDS011;37886;53.174;6.368;2023-02-15T16:22:13;88.90;;;65.93;;
51838;SDS011;37886;53.174;6.368;2023-02-15T16:27:46;85.70;;;63.55;;
51838;SDS011;37886;53.174;6.368;2023-02-15T16:32:52;80.90;;;62.20;;
51838;SDS011;37886;53.174;6.368;2023-02-15T16:35:29;78.60;;;61.07;;
51838;SDS011;37886;53.174;6.368;2023-02-15T16:37:55;81.53;;;61.15;;
51838;SDS011;37886;53.174;6.368;2023-02-15T16:42:50;86.50;;;63.47;;
51838;SDS011;37886;53.174;6.368;2023-02-15T16:45:20;86.00;;;62.13;;
51838;SDS011;37886;53.174;6.368;2023-02-15T16:47:49;85.18;;;63.42;;
51838;SDS011;37886;53.174;6.368;2023-02-15T16:50:39;80.32;;;62.03;;
51838;SDS011;37886;53.174;6.368;2023-02-15T16:53:05;84.70;;;63.97;;
51838;SDS011;37886;53.174;6.368;2023-02-15T16:55:39;85.85;;;63.70;;
51838;SDS011;37886;53.174;6.368;2023-02-15T16:58:07;84.20;;;65.47;;
51838;SDS011;37886;53.174;6.368;2023-02-15T17:00:37;84.50;;;62.65;;
51838;SDS011;37886;53.174;6.368;2023-02-15T17:05:47;79.00;;;61.00;;
51838;SDS011;37886;53.174;6.368;2023-02-15T17:11:11;90.05;;;66.90;;
51838;SDS011;37886;53.174;6.368;2023-02-15T17:16:32;82.95;;;65.03;;
51838;SDS011;37886;53.174;6.368;2023-02-15T17:19:01;91.55;;;69.60;;
51838;SDS011;37886;53.174;6.368;2023-02-15T17:21:41;120.75;;;97.18;;
51838;SDS011;37886;53.174;6.368;2023-02-15T17:24:57;164.30;;;130.30;;
51838;SDS011;37886;53.174;6.368;2023-02-15T17:27:03;172.38;;;133.38;;
51838;SDS011;37886;53.174;6.368;2023-02-15T17:29:36;162.00;;;125.70;;
51838;SDS011;37886;53.174;6.368;2023-02-15T17:32:04;152.68;;;118.82;;
51838;SDS011;37886;53.174;6.368;2023-02-15T17:34:42;127.40;;;97.38;;
51838;SDS011;37886;53.174;6.368;2023-02-15T17:37:11;113.50;;;83.60;;
51838;SDS011;37886;53.174;6.368;2023-02-15T17:42:05;101.95;;;73.72;;
51838;SDS011;37886;53.174;6.368;2023-02-15T17:44:31;103.20;;;79.18;;
51838;SDS011;37886;53.174;6.368;2023-02-15T17:46:57;103.20;;;78.75;;
51838;SDS011;37886;53.174;6.368;2023-02-15T17:49:24;104.07;;;79.72;;
51838;SDS011;37886;53.174;6.368;2023-02-15T17:51:59;106.88;;;74.38;;
51838;SDS011;37886;53.174;6.368;2023-02-15T17:54:28;101.45;;;74.88;;
51838;SDS011;37886;53.174;6.368;2023-02-15T17:57:13;100.45;;;75.35;;
51838;SDS011;37886;53.174;6.368;2023-02-15T17:59:40;97.95;;;72.05;;
51838;SDS011;37886;53.174;6.368;2023-02-15T18:02:30;105.38;;;74.70;;
51838;SDS011;37886;53.174;6.368;2023-02-15T18:05:16;95.80;;;67.65;;